createdAt,value
2022-12-08T00:02:23.027Z,6.5
2022-12-08T00:04:22.796Z,4.6
2022-12-08T00:08:22.594Z,4
2022-12-08T00:10:47.839Z,5
2022-12-08T00:12:25.839Z,4.9
2022-12-08T00:14:25.720Z,5.7
2022-12-08T00:16:25.670Z,3.6
2022-12-08T00:26:28.544Z,6.4
2022-12-08T00:30:28.315Z,4.8
2022-12-08T00:31:30.096Z,5
2022-12-08T00:33:29.916Z,5.3
2022-12-08T00:35:29.817Z,7.6
2022-12-08T00:37:29.659Z,4.8
2022-12-08T00:39:33.047Z,5.3
2022-12-08T00:41:32.935Z,8
2022-12-08T00:43:32.839Z,4.2
2022-12-08T00:45:32.898Z,3.5
2022-12-08T00:47:32.577Z,5.5
2022-12-08T00:49:32.460Z,6.3
2022-12-08T00:51:32.377Z,6.1
2022-12-08T00:53:35.786Z,6.5
2022-12-08T00:55:35.663Z,4.5
2022-12-08T01:01:35.405Z,6
2022-12-08T01:03:35.316Z,6.3
2022-12-08T01:05:35.112Z,4.7
2022-12-08T01:07:38.537Z,5.5
2022-12-08T01:09:38.336Z,8
2022-12-08T01:11:38.249Z,5.6
2022-12-08T01:13:38.131Z,5.1
2022-12-08T01:15:38.013Z,4.9
2022-12-08T01:17:37.855Z,4.8
2022-12-08T01:19:37.741Z,3.8
2022-12-08T01:21:41.173Z,10.5
2022-12-08T01:23:41.011Z,3.5
2022-12-08T01:25:40.876Z,9.5
2022-12-08T01:26:42.635Z,8.8
2022-12-08T01:28:42.476Z,10.4
2022-12-08T01:38:45.371Z,6.2
2022-12-08T01:40:45.263Z,6.6
2022-12-08T01:42:45.167Z,6.7
2022-12-08T01:46:44.991Z,10.5
2022-12-08T01:48:48.310Z,6.5
2022-12-08T01:50:48.223Z,8.4
2022-12-08T01:52:48.081Z,3.7
2022-12-08T01:54:47.963Z,8.9
2022-12-08T01:56:47.836Z,5.1
2022-12-08T01:58:47.754Z,7.9
2022-12-08T02:00:47.601Z,4.6
2022-12-08T02:02:52.587Z,10.4
2022-12-08T02:04:52.400Z,7.2
2022-12-08T02:08:52.205Z,10.6
2022-12-08T02:10:52.089Z,10.9
2022-12-08T02:12:51.960Z,5.9
2022-12-08T02:14:51.803Z,5.1
2022-12-08T02:16:55.174Z,8
2022-12-08T02:19:28.640Z,7
2022-12-08T02:23:16.933Z,7
2022-12-08T02:25:16.818Z,8.3
2022-12-08T02:29:20.102Z,11.1
2022-12-08T02:31:20.015Z,5.9
2022-12-08T02:33:19.813Z,7.9
2022-12-08T02:35:19.690Z,7.6
2022-12-08T02:37:19.615Z,7.2
2022-12-08T02:39:19.448Z,7.4
2022-12-08T02:41:19.329Z,8.8
2022-12-08T02:43:22.693Z,5.1
2022-12-08T02:47:22.440Z,8.7
2022-12-08T02:49:22.322Z,4.2
2022-12-08T02:51:22.214Z,6.5
2022-12-08T02:55:21.977Z,7.4
2022-12-08T02:57:25.335Z,5.6
2022-12-08T02:59:25.217Z,5.3
2022-12-08T03:01:25.164Z,3.8
2022-12-08T03:03:24.981Z,5.3
2022-12-08T03:05:24.925Z,5
2022-12-08T03:07:24.745Z,6.6
2022-12-08T03:09:24.617Z,8.1
2022-12-08T03:11:27.987Z,5.9
2022-12-08T03:13:27.865Z,4.7
2022-12-08T03:15:27.820Z,5.9
2022-12-08T03:16:29.511Z,6.5
2022-12-08T03:18:29.281Z,5.4
2022-12-08T03:20:29.150Z,3.7
2022-12-08T03:24:32.435Z,5.8
2022-12-08T03:26:32.317Z,6.7
2022-12-08T03:28:32.187Z,5.1
2022-12-08T03:30:32.066Z,4.6
2022-12-08T03:32:31.906Z,5.7
2022-12-08T03:34:31.798Z,4.5
2022-12-08T03:36:31.668Z,6.6
2022-12-08T03:38:35.029Z,5.6
2022-12-08T03:40:34.915Z,4.7
2022-12-08T03:42:34.827Z,5.2
2022-12-08T03:44:34.676Z,4.2
2022-12-08T03:46:34.561Z,4.9
2022-12-08T03:48:34.447Z,9
2022-12-08T03:50:34.349Z,4.9
2022-12-08T03:52:37.710Z,4.2
2022-12-08T03:58:37.742Z,7.8
2022-12-08T04:02:37.153Z,7.3
2022-12-08T04:11:41.806Z,10.3
2022-12-08T04:13:41.676Z,4.2
2022-12-08T04:15:41.614Z,7.7
2022-12-08T04:21:44.689Z,5.5
2022-12-08T04:23:44.568Z,6.6
2022-12-08T04:25:44.537Z,6.3
2022-12-08T04:29:44.195Z,5.7
2022-12-08T04:31:44.136Z,8.4
2022-12-08T04:33:47.467Z,6.8
2022-12-08T04:35:47.307Z,5.6
2022-12-08T04:37:47.182Z,5.4
2022-12-08T04:39:47.079Z,7.3
2022-12-08T04:41:46.939Z,6.7
2022-12-08T04:43:46.817Z,5.5
2022-12-08T04:45:46.757Z,5.9
2022-12-08T04:47:50.037Z,6.6
2022-12-08T04:49:49.896Z,4.7
2022-12-08T04:51:49.799Z,4.6
2022-12-08T04:53:49.698Z,4.3
2022-12-08T04:55:49.589Z,5.5
2022-12-08T04:57:49.424Z,3.7
2022-12-08T04:59:49.318Z,4.3
2022-12-08T05:01:52.767Z,4.2
2022-12-08T05:03:52.566Z,5.3
2022-12-08T05:05:52.410Z,4.6
2022-12-08T05:06:54.116Z,4.9
2022-12-08T05:08:53.988Z,4.2
2022-12-08T05:10:53.867Z,4.6
2022-12-08T05:12:53.763Z,5.1
2022-12-08T05:16:57.025Z,4
2022-12-08T05:18:56.862Z,4.7
2022-12-08T05:20:56.743Z,3.7
2022-12-08T05:22:56.600Z,3.8
2022-12-08T05:24:56.483Z,4
2022-12-08T05:26:56.381Z,3.7
2022-12-08T05:28:59.725Z,4.3
2022-12-08T05:30:59.637Z,4.2
2022-12-08T05:32:59.479Z,3.3
2022-12-08T05:34:59.367Z,3.4
2022-12-08T05:36:59.217Z,3.9
2022-12-08T05:38:59.098Z,3.2
2022-12-08T05:40:59.002Z,4.5
2022-12-08T05:43:02.338Z,4.3
2022-12-08T05:45:02.242Z,3.3
2022-12-08T05:47:02.069Z,3.7
2022-12-08T05:49:01.999Z,3.3
2022-12-08T05:51:01.867Z,3.8
2022-12-08T05:57:04.955Z,3.1
2022-12-08T06:03:27.076Z,3.1
2022-12-08T06:05:26.866Z,2.8
2022-12-08T06:07:26.754Z,2.6
2022-12-08T06:11:30.015Z,2.7
2022-12-08T06:13:29.893Z,2.2
2022-12-08T06:15:29.772Z,2.4
2022-12-08T06:17:29.660Z,2.2
2022-12-08T06:19:29.547Z,2.8
2022-12-08T06:23:32.762Z,2.4
2022-12-08T06:25:32.641Z,2.3
2022-12-08T06:31:32.478Z,1.8
2022-12-08T06:33:32.200Z,1.8
2022-12-08T06:35:32.078Z,2.3
2022-12-08T06:41:35.224Z,2.2
2022-12-08T06:43:35.086Z,2.5
2022-12-08T06:45:34.987Z,2.3
2022-12-08T06:47:34.858Z,2
2022-12-08T06:49:34.741Z,2.2
2022-12-08T06:51:38.096Z,2.2
2022-12-08T06:53:37.988Z,3
2022-12-08T06:56:39.569Z,3.6
2022-12-08T06:58:39.453Z,2.1
2022-12-08T07:00:39.320Z,2.4
2022-12-08T07:04:42.538Z,2.2
2022-12-08T07:06:42.423Z,2.1
2022-12-08T07:08:42.325Z,2.4
2022-12-08T07:10:42.213Z,2.9
2022-12-08T07:12:42.053Z,2.3
2022-12-08T07:14:41.958Z,2.4
2022-12-08T07:18:45.222Z,3.4
2022-12-08T07:20:45.123Z,2.2
2022-12-08T07:22:45.040Z,3.7
2022-12-08T07:24:44.869Z,3.2
2022-12-08T07:28:44.641Z,4
2022-12-08T07:30:44.558Z,4.2
2022-12-08T07:38:47.574Z,6
2022-12-08T07:40:47.459Z,4.3
2022-12-08T07:42:47.336Z,3.8
2022-12-08T07:44:47.225Z,4.5
2022-12-08T07:46:52.167Z,5.5
2022-12-08T07:48:52.028Z,3.9
2022-12-08T07:50:51.907Z,5
2022-12-08T07:51:53.596Z,4.2
2022-12-08T07:53:54.582Z,4.2
2022-12-08T07:55:53.364Z,3.5
2022-12-08T07:57:53.279Z,4.2
2022-12-08T07:59:56.850Z,5
2022-12-08T08:02:21.343Z,3.5
2022-12-08T08:03:56.359Z,4.4
2022-12-08T08:05:56.252Z,4
2022-12-08T08:07:56.090Z,3.5
2022-12-08T08:09:55.923Z,3.4
2022-12-08T08:13:59.195Z,3.9
2022-12-08T08:25:58.471Z,3.2
2022-12-08T08:28:01.897Z,3.7
2022-12-08T08:30:02.732Z,3.9
2022-12-08T08:32:01.665Z,3.3
2022-12-08T08:42:04.563Z,4.7
2022-12-08T08:51:05.796Z,2.4
2022-12-08T08:53:05.672Z,4
2022-12-08T08:57:08.923Z,3.4
2022-12-08T08:59:08.796Z,3.7
2022-12-08T09:01:08.687Z,3.6
2022-12-08T09:03:08.574Z,4
2022-12-08T09:05:08.589Z,3.5
2022-12-08T09:07:08.345Z,2.9
2022-12-08T09:09:11.704Z,3.3
2022-12-08T09:11:11.612Z,3.4
2022-12-08T09:17:11.272Z,3.1
2022-12-08T09:19:11.145Z,2.6
2022-12-08T09:21:11.006Z,3.3
2022-12-08T09:23:14.424Z,3
2022-12-08T09:25:14.310Z,2.9
2022-12-08T09:27:14.219Z,3.5
2022-12-08T09:29:14.049Z,4.3
2022-12-08T09:31:14.107Z,3.1
2022-12-08T09:33:13.838Z,3.1
2022-12-08T09:35:13.705Z,3.3
2022-12-08T09:37:17.119Z,3.1
2022-12-08T09:39:16.992Z,3.8
2022-12-08T09:43:32.642Z,3.3
2022-12-08T09:45:32.536Z,3.6
2022-12-08T09:47:35.991Z,3.2
2022-12-08T09:49:35.780Z,4.2
2022-12-08T09:51:35.680Z,3.2
2022-12-08T09:53:35.912Z,3.3
2022-12-08T09:55:35.432Z,2.3
2022-12-08T09:57:35.312Z,3.5
2022-12-08T09:59:35.169Z,3.1
2022-12-08T10:01:35.166Z,2.8
2022-12-08T10:03:38.415Z,2.8
2022-12-08T10:05:38.302Z,3
2022-12-08T10:07:38.163Z,2.1
2022-12-08T10:09:38.017Z,3.7
2022-12-08T10:11:37.916Z,3
2022-12-08T10:21:40.799Z,3.2
2022-12-08T10:23:40.684Z,3
2022-12-08T10:25:40.583Z,2.4
2022-12-08T10:27:40.450Z,3.2
2022-12-08T10:31:43.781Z,2.6
2022-12-08T10:33:43.617Z,2.4
2022-12-08T10:35:43.491Z,2.6
2022-12-08T10:36:45.167Z,2.9
2022-12-08T10:38:45.051Z,2.7
2022-12-08T10:40:45.877Z,3.8
2022-12-08T10:42:44.827Z,3
2022-12-08T10:46:48.123Z,2.4
2022-12-08T10:48:47.942Z,2.7
2022-12-08T10:50:47.836Z,2.9
2022-12-08T10:54:47.590Z,2
2022-12-08T10:56:47.466Z,3
2022-12-08T11:12:53.579Z,2.8
2022-12-08T11:14:53.372Z,2.2
2022-12-08T11:16:53.365Z,2.2
2022-12-08T11:18:53.130Z,1.5
2022-12-08T11:20:53.017Z,1.7
2022-12-08T11:22:52.905Z,1.9
2022-12-08T11:24:52.774Z,2
2022-12-08T11:26:56.132Z,2
2022-12-08T11:28:56.062Z,1.5
2022-12-08T11:30:55.910Z,1.7
2022-12-08T11:31:57.683Z,1.8
2022-12-08T11:33:57.469Z,1.9
2022-12-08T11:35:57.337Z,2.1
2022-12-08T11:38:08.102Z,2
2022-12-08T11:40:00.607Z,1.8
2022-12-08T11:42:00.468Z,1.8
2022-12-08T11:44:00.331Z,2.2
2022-12-08T11:46:00.339Z,1.8
2022-12-08T11:48:00.123Z,1.9
2022-12-08T11:49:59.994Z,1.9
2022-12-08T11:51:59.908Z,1.6
2022-12-08T11:54:03.229Z,2.1
2022-12-08T11:56:03.109Z,2.1
2022-12-08T11:58:03.101Z,1.6
2022-12-08T12:00:03.138Z,1.6
2022-12-08T12:02:02.789Z,1.4
2022-12-08T12:04:02.615Z,1.7
2022-12-08T12:08:05.948Z,1.5
2022-12-08T12:10:05.935Z,2
2022-12-08T12:12:05.597Z,2.1
2022-12-08T12:14:05.512Z,1.6
2022-12-08T12:16:05.358Z,1.6
2022-12-08T12:18:05.219Z,1.5
2022-12-08T12:20:05.516Z,1.7
2022-12-08T12:22:08.481Z,2.3
2022-12-08T12:24:08.334Z,1.3
2022-12-08T12:26:08.225Z,1.1
2022-12-08T12:27:09.910Z,1.9
2022-12-08T12:29:09.777Z,2
2022-12-08T12:31:09.674Z,1.1
2022-12-08T12:33:09.539Z,1.5
2022-12-08T12:35:12.898Z,1.9
2022-12-08T12:41:12.531Z,1.4
2022-12-08T12:43:12.398Z,1.3
2022-12-08T12:45:12.253Z,1.6
2022-12-08T12:47:12.115Z,2
2022-12-08T12:49:15.501Z,1.6
2022-12-08T12:51:15.352Z,1.7
2022-12-08T12:53:15.233Z,1.5
2022-12-08T12:55:15.107Z,1.7
2022-12-08T13:03:18.098Z,1.5
2022-12-08T13:05:17.983Z,1.6
2022-12-08T13:07:17.810Z,1.4
2022-12-08T13:09:17.728Z,1.7
2022-12-08T13:11:17.616Z,1.3
2022-12-08T13:13:17.518Z,1.8
2022-12-08T13:15:17.342Z,1.6
2022-12-08T13:17:20.767Z,2.2
2022-12-08T13:19:20.588Z,1.3
2022-12-08T13:21:20.458Z,1.5
2022-12-08T13:23:36.424Z,2.2
2022-12-08T13:25:37.117Z,1.6
2022-12-08T13:27:36.236Z,2.1
2022-12-08T13:29:39.573Z,2.1
2022-12-08T13:31:46.661Z,1.5
2022-12-08T13:33:40.839Z,1.3
2022-12-08T13:35:40.698Z,1.4
2022-12-08T13:37:50.770Z,1.7
2022-12-08T13:39:40.511Z,1.2
2022-12-08T13:41:40.280Z,1.4
2022-12-08T13:43:55.830Z,1.3
2022-12-08T13:46:48.752Z,2.1
2022-12-08T13:48:06.291Z,1.7
2022-12-08T13:57:46.156Z,1.1
2022-12-08T14:01:45.943Z,2.1
2022-12-08T14:04:12.440Z,1.3
2022-12-08T14:07:45.554Z,1.9
2022-12-08T14:11:48.699Z,1.5
2022-12-08T14:13:48.537Z,1.2
2022-12-08T14:15:48.442Z,1.4
2022-12-08T14:16:50.129Z,1.3
2022-12-08T14:18:49.980Z,1.3
2022-12-08T14:24:53.084Z,1
2022-12-08T14:26:52.944Z,1
2022-12-08T14:28:52.859Z,1.1
2022-12-08T14:30:52.709Z,1
2022-12-08T14:32:52.562Z,1.2
2022-12-08T14:34:52.415Z,1.6
2022-12-08T14:36:52.297Z,1.4
2022-12-08T14:40:55.506Z,1.8
2022-12-08T14:42:55.415Z,1.5
2022-12-08T14:44:55.294Z,2.2
2022-12-08T14:46:55.295Z,1.7
2022-12-08T14:48:55.048Z,1.8
2022-12-08T14:50:54.900Z,1.6
2022-12-08T14:52:58.290Z,1.6
2022-12-08T14:54:58.152Z,1.4
2022-12-08T14:56:58.016Z,1.3
2022-12-08T14:58:57.897Z,2.4
2022-12-08T15:00:57.792Z,2.1
2022-12-08T15:04:57.590Z,2.4
2022-12-08T15:07:00.918Z,2.3
2022-12-08T15:09:00.802Z,1.7
2022-12-08T15:12:02.356Z,2.5
2022-12-08T15:14:02.223Z,2.2
2022-12-08T15:16:02.187Z,2.2
2022-12-08T15:18:01.992Z,2
2022-12-08T15:20:05.665Z,3.5
2022-12-08T15:22:05.213Z,2.2
2022-12-08T15:24:05.122Z,2.3
2022-12-08T15:26:05.032Z,1.9
2022-12-08T15:28:04.860Z,1.9
2022-12-08T15:30:05.273Z,2.6
2022-12-08T15:32:04.646Z,2
2022-12-08T15:34:08.001Z,2.7
2022-12-08T15:36:07.909Z,2.1
2022-12-08T15:42:07.554Z,2.6
2022-12-08T15:44:07.433Z,2.6
2022-12-08T15:46:07.523Z,2.1
2022-12-08T15:48:10.703Z,2.6
2022-12-08T15:50:10.553Z,2
2022-12-08T15:56:28.720Z,2.2
2022-12-08T16:05:11.593Z,3.5
2022-12-08T16:06:57.639Z,2.8
2022-12-08T16:07:22.483Z,3.9
2022-12-08T16:09:14.778Z,2.6
2022-12-08T16:11:56.620Z,3.1
2022-12-08T16:13:55.534Z,3.4
2022-12-08T16:15:51.646Z,3.8
2022-12-08T16:19:17.592Z,3.5
2022-12-08T16:21:41.716Z,4.3
2022-12-08T16:23:34.592Z,3.8
2022-12-08T16:25:19.922Z,3.1
2022-12-08T16:29:20.483Z,6.1
2022-12-08T16:31:23.266Z,3.7
2022-12-08T16:39:19.883Z,5.6
2022-12-08T16:41:19.748Z,5.6
2022-12-08T16:43:23.132Z,5
2022-12-08T16:45:23.118Z,4
2022-12-08T16:47:22.897Z,5
2022-12-08T16:49:22.755Z,5.1
2022-12-08T16:51:26.843Z,4.6
2022-12-08T16:53:22.558Z,5.6
2022-12-08T16:55:22.409Z,4.4
2022-12-08T16:59:25.672Z,6.2
2022-12-08T17:01:25.683Z,6.4
2022-12-08T17:04:01.425Z,7.2
2022-12-08T17:05:47.490Z,7.3
2022-12-08T17:07:47.382Z,5.2
2022-12-08T17:09:50.731Z,7.3
2022-12-08T17:11:50.628Z,5.1
2022-12-08T17:13:50.524Z,5.4
2022-12-08T17:15:50.374Z,5.2
2022-12-08T17:19:50.167Z,5.6
2022-12-08T17:21:50.078Z,5.3
2022-12-08T17:23:53.450Z,6.9
2022-12-08T17:25:53.307Z,5.8
2022-12-08T17:27:53.207Z,6.5
2022-12-08T17:29:53.092Z,6.2
2022-12-08T17:31:53.060Z,6.4
2022-12-08T17:33:52.892Z,6
2022-12-08T17:35:52.769Z,8
2022-12-08T17:37:56.373Z,8.7
2022-12-08T17:39:56.044Z,6.8
2022-12-08T17:41:55.928Z,6.5
2022-12-08T17:43:55.845Z,6.2
2022-12-08T17:45:55.732Z,7.3
2022-12-08T17:47:55.588Z,7.1
2022-12-08T17:51:58.837Z,8.5
2022-12-08T17:53:58.730Z,6.5
2022-12-08T17:55:58.598Z,6
2022-12-08T17:57:00.301Z,6.4
2022-12-08T17:59:00.183Z,6.8
2022-12-08T18:01:00.153Z,6.7
2022-12-08T18:02:59.955Z,5.9
2022-12-08T18:05:03.343Z,6.5
2022-12-08T18:07:03.197Z,5.3
2022-12-08T18:09:03.097Z,6.4
2022-12-08T18:11:02.984Z,6.5
2022-12-08T18:13:02.840Z,6.9
2022-12-08T18:15:02.827Z,6.5
2022-12-08T18:17:02.958Z,7.3
2022-12-08T18:19:06.026Z,9.5
2022-12-08T18:21:05.927Z,7.4
2022-12-08T18:25:05.668Z,7.2
2022-12-08T18:27:05.557Z,8.3
2022-12-08T18:37:08.469Z,7.2
2022-12-08T18:39:10.984Z,5.9
2022-12-08T18:45:08.048Z,7.3
2022-12-08T18:47:11.439Z,8.4
2022-12-08T18:49:11.341Z,6.6
2022-12-08T18:51:11.222Z,7.2
2022-12-08T18:54:12.788Z,6.9
2022-12-08T18:58:12.553Z,8.7
2022-12-08T19:00:15.931Z,8.7
2022-12-08T19:02:15.864Z,9.5
2022-12-08T19:04:29.645Z,9.8
2022-12-08T19:06:15.612Z,8.7
2022-12-08T19:08:15.570Z,9.6
2022-12-08T19:10:15.367Z,7.7
2022-12-08T19:12:15.237Z,8
2022-12-08T19:14:24.057Z,9.8
2022-12-08T19:16:18.665Z,9.2
2022-12-08T19:18:19.997Z,9.3
2022-12-08T19:20:19.831Z,8.5
2022-12-08T19:28:22.856Z,11.3
2022-12-08T19:30:22.804Z,10.5
2022-12-08T19:32:22.673Z,8.6
2022-12-08T19:34:22.530Z,10.7
2022-12-08T19:36:22.635Z,10.7
2022-12-08T19:38:22.337Z,9.9
2022-12-08T19:40:22.209Z,11.2
2022-12-08T19:42:25.571Z,13
2022-12-08T19:44:25.470Z,9.7
2022-12-08T19:46:25.636Z,11.1
2022-12-08T19:49:26.908Z,13.2
2022-12-08T19:53:26.648Z,12.3
2022-12-08T19:55:30.062Z,13
2022-12-08T19:57:29.913Z,11
2022-12-08T19:59:29.821Z,11.1
2022-12-08T20:01:29.755Z,11.5
2022-12-08T20:05:29.441Z,11.8
2022-12-08T20:09:33.381Z,17.8
2022-12-08T20:11:33.296Z,13
2022-12-08T20:13:33.171Z,10.7
2022-12-08T20:15:33.137Z,13.1
2022-12-08T20:17:32.915Z,11.6
2022-12-08T20:19:32.787Z,10.7
2022-12-08T20:21:32.681Z,13.7
2022-12-08T20:23:36.052Z,16.8
2022-12-08T20:27:35.793Z,12.1
2022-12-08T20:29:35.703Z,12.5
2022-12-08T20:31:35.663Z,10.3
2022-12-08T20:33:35.462Z,9.9
2022-12-08T20:37:38.714Z,12
2022-12-08T20:39:38.559Z,10.6
2022-12-08T20:41:39.382Z,11.4
2022-12-08T20:44:00.201Z,12.7
2022-12-08T20:46:00.271Z,10.6
2022-12-08T20:47:59.992Z,11.1
2022-12-08T20:50:03.641Z,12.2
2022-12-08T20:52:03.290Z,11.1
2022-12-08T20:54:03.167Z,9
2022-12-08T20:56:02.973Z,11.3
2022-12-08T20:58:02.922Z,11.2
2022-12-08T21:00:03.147Z,10.1
2022-12-08T21:02:02.729Z,10.3
2022-12-08T21:04:06.260Z,12.2
2022-12-08T21:06:05.961Z,9.4
2022-12-08T21:12:05.585Z,10.5
2022-12-08T21:14:05.385Z,9.7
2022-12-08T21:16:05.459Z,10.1
2022-12-08T21:18:08.948Z,12.9
2022-12-08T21:20:08.790Z,10.2
2022-12-08T21:22:08.529Z,11.9
2022-12-08T21:24:08.429Z,10.9
2022-12-08T21:26:08.145Z,9
2022-12-08T21:28:08.112Z,10
2022-12-08T21:30:08.246Z,10
2022-12-08T21:32:11.341Z,13.4
2022-12-08T21:34:11.223Z,11.8
2022-12-08T21:36:11.074Z,11.5
2022-12-08T21:37:12.741Z,12.2
2022-12-08T21:39:12.851Z,10.8
2022-12-08T21:41:12.530Z,11.1
2022-12-08T21:43:12.422Z,10.8
2022-12-08T21:45:15.851Z,12.3
2022-12-08T21:47:15.592Z,11.6
2022-12-08T21:49:15.755Z,11.3
2022-12-08T21:51:15.237Z,11.7
2022-12-08T21:53:15.116Z,12.5
2022-12-08T21:55:15.089Z,12.9
2022-12-08T21:57:15.002Z,13.2
2022-12-08T21:59:18.489Z,13.9
2022-12-08T22:01:18.352Z,13.4
2022-12-08T22:03:18.315Z,10.1
2022-12-08T22:05:18.024Z,15
2022-12-08T22:09:17.852Z,14.8
2022-12-08T22:19:20.592Z,13.3
2022-12-08T22:21:20.428Z,13.2
2022-12-08T22:23:20.364Z,12.8
2022-12-08T22:25:20.325Z,12.5
2022-12-08T22:27:23.646Z,15.6
2022-12-08T22:29:23.454Z,12.8
2022-12-08T22:31:23.490Z,14.1
2022-12-08T22:32:25.232Z,15.4
2022-12-08T22:44:27.822Z,13.6
2022-12-08T22:46:27.956Z,12.9
2022-12-08T22:48:27.591Z,14.1
2022-12-08T22:54:30.682Z,18.5
2022-12-08T22:56:30.677Z,14.9
2022-12-08T22:58:30.462Z,15.2
2022-12-08T23:00:30.446Z,13.6
2022-12-08T23:02:30.164Z,12.1
2022-12-08T23:04:30.428Z,13.4
2022-12-08T23:06:30.262Z,12.5
2022-12-08T23:08:33.386Z,15.2
2022-12-08T23:10:33.169Z,14.2
2022-12-08T23:12:33.255Z,14.3
2022-12-08T23:14:32.945Z,14.4
2022-12-08T23:16:33.057Z,13.8
2022-12-08T23:18:32.881Z,12.7
2022-12-08T23:20:32.584Z,14.4
2022-12-08T23:22:35.943Z,15.3
2022-12-08T23:24:35.863Z,16.2
2022-12-08T23:26:35.926Z,14.1
2022-12-08T23:27:37.413Z,14.4
2022-12-08T23:29:37.541Z,15.3
2022-12-08T23:31:37.524Z,13.3
2022-12-08T23:33:37.128Z,14.3
2022-12-08T23:35:40.509Z,15.3
2022-12-08T23:37:40.361Z,15.4
2022-12-08T23:39:40.463Z,14.8
2022-12-08T23:41:40.102Z,14.5
2022-12-08T23:43:40.161Z,14.7
2022-12-08T23:45:40.066Z,16
2022-12-08T23:47:39.723Z,15
2022-12-08T23:49:43.134Z,17.4
2022-12-08T23:51:43.205Z,14
2022-12-08T23:53:43.125Z,14.9
2022-12-08T23:55:42.947Z,15
2022-12-08T23:57:42.646Z,15.1
2022-12-08T23:59:42.663Z,16.7
